createdAt,value
2022-11-16T00:01:45.779Z,23.48
2022-11-16T00:04:13.142Z,22.42
2022-11-16T00:06:40.558Z,27.80
2022-11-16T00:09:22.842Z,22.88
2022-11-16T00:11:55.455Z,23.92
2022-11-16T00:14:24.480Z,24.98
2022-11-16T00:16:51.851Z,20.35
2022-11-16T00:19:18.805Z,24.40
2022-11-16T00:21:46.026Z,27.23
2022-11-16T00:24:14.869Z,23.98
2022-11-16T00:26:42.131Z,29.42
2022-11-16T00:29:17.752Z,25.23
2022-11-16T00:31:45.922Z,24.67
2022-11-16T00:34:13.001Z,24.48
2022-11-16T00:36:39.914Z,25.67
2022-11-16T00:39:06.876Z,28.50
2022-11-16T00:41:33.737Z,29.17
2022-11-16T00:44:00.719Z,27.23
2022-11-16T00:46:27.763Z,27.33
2022-11-16T00:48:54.734Z,26.48
2022-11-16T00:51:21.627Z,29.33
2022-11-16T00:53:48.738Z,27.83
2022-11-16T00:56:15.855Z,29.38
2022-11-16T00:58:44.159Z,28.10
2022-11-16T01:01:11.953Z,27.20
2022-11-16T01:03:39.077Z,31.05
2022-11-16T01:06:08.924Z,28.02
2022-11-16T01:08:38.492Z,27.10
2022-11-16T01:11:32.930Z,29.05
2022-11-16T01:14:03.375Z,29.10
2022-11-16T01:16:30.785Z,34.10
2022-11-16T01:18:57.744Z,34.53
2022-11-16T01:21:25.713Z,30.58
2022-11-16T01:23:52.948Z,33.55
2022-11-16T01:26:20.112Z,29.92
2022-11-16T01:28:47.402Z,32.47
2022-11-16T01:31:14.368Z,31.85
2022-11-16T01:33:42.259Z,32.00
2022-11-16T01:36:17.544Z,28.17
2022-11-16T01:38:47.146Z,28.77
2022-11-16T01:41:23.584Z,33.03
2022-11-16T01:44:26.598Z,34.00
2022-11-16T01:46:57.153Z,34.38
2022-11-16T01:49:27.902Z,33.03
2022-11-16T01:52:01.487Z,33.40
2022-11-16T01:54:33.016Z,34.33
2022-11-16T01:57:07.304Z,33.15
2022-11-16T01:59:41.646Z,35.15
2022-11-16T02:02:15.249Z,35.42
2022-11-16T02:04:43.783Z,37.05
2022-11-16T02:07:21.000Z,42.47
2022-11-16T02:10:12.767Z,42.58
2022-11-16T02:13:00.377Z,46.15
2022-11-16T02:15:45.095Z,41.67
2022-11-16T02:18:42.855Z,43.10
2022-11-16T02:21:35.255Z,42.40
2022-11-16T02:24:17.281Z,39.85
2022-11-16T02:27:21.953Z,42.60
2022-11-16T02:29:55.921Z,47.60
2022-11-16T02:32:52.533Z,45.70
2022-11-16T02:35:29.059Z,43.25
2022-11-16T02:38:14.331Z,43.50
2022-11-16T02:41:01.891Z,41.28
2022-11-16T02:43:44.927Z,39.38
2022-11-16T02:46:27.137Z,42.85
2022-11-16T02:48:57.930Z,44.28
2022-11-16T02:51:28.514Z,48.60
2022-11-16T02:54:12.833Z,50.97
2022-11-16T02:57:15.841Z,50.33
2022-11-16T02:59:46.880Z,50.20
2022-11-16T03:02:31.640Z,56.33
2022-11-16T03:05:13.476Z,52.53
2022-11-16T03:08:00.421Z,45.95
2022-11-16T03:10:49.137Z,46.42
2022-11-16T03:13:17.648Z,50.78
2022-11-16T03:15:45.245Z,46.42
2022-11-16T03:18:16.490Z,41.10
2022-11-16T03:20:44.472Z,39.47
2022-11-16T03:23:14.007Z,40.08
2022-11-16T03:25:51.334Z,33.92
2022-11-16T03:28:34.277Z,34.92
2022-11-16T03:31:07.708Z,35.35
2022-11-16T03:33:48.014Z,36.58
2022-11-16T03:36:30.955Z,39.88
2022-11-16T03:39:07.283Z,33.08
2022-11-16T03:41:39.368Z,34.03
2022-11-16T03:44:10.715Z,30.90
2022-11-16T03:46:40.292Z,33.30
2022-11-16T03:49:08.969Z,35.55
2022-11-16T03:51:37.704Z,32.30
2022-11-16T03:54:05.861Z,32.35
2022-11-16T03:56:34.288Z,32.17
2022-11-16T03:59:02.642Z,31.92
2022-11-16T04:01:31.050Z,31.45
2022-11-16T04:03:58.621Z,31.27
2022-11-16T04:06:44.284Z,29.13
2022-11-16T04:09:29.758Z,33.60
2022-11-16T04:12:14.959Z,29.40
2022-11-16T04:15:01.380Z,30.88
2022-11-16T04:17:48.847Z,27.90
2022-11-16T04:20:34.913Z,35.03
2022-11-16T04:23:25.501Z,28.67
2022-11-16T04:25:53.176Z,27.13
2022-11-16T04:28:24.283Z,28.67
2022-11-16T04:31:17.392Z,29.48
2022-11-16T04:34:36.097Z,28.13
2022-11-16T04:37:23.096Z,35.03
2022-11-16T04:39:50.144Z,23.60
2022-11-16T04:42:20.058Z,31.13
2022-11-16T04:45:08.716Z,36.33
2022-11-16T04:47:44.254Z,32.58
2022-11-16T04:50:12.626Z,28.20
2022-11-16T04:52:41.022Z,33.08
2022-11-16T04:55:11.633Z,33.03
2022-11-16T04:57:38.868Z,25.25
2022-11-16T05:00:07.542Z,32.90
2022-11-16T05:02:36.389Z,39.17
2022-11-16T05:05:03.440Z,32.67
2022-11-16T05:07:30.616Z,36.83
2022-11-16T05:10:07.166Z,35.73
2022-11-16T05:12:35.081Z,37.80
2022-11-16T05:15:06.344Z,39.80
2022-11-16T05:17:34.510Z,36.97
2022-11-16T05:20:22.325Z,30.70
2022-11-16T05:22:58.712Z,37.13
2022-11-16T05:25:36.111Z,34.75
2022-11-16T05:28:06.398Z,28.80
2022-11-16T05:30:37.782Z,32.17
2022-11-16T05:33:04.981Z,34.63
2022-11-16T05:35:35.958Z,32.67
2022-11-16T05:38:03.005Z,29.35
2022-11-16T05:40:33.468Z,32.30
2022-11-16T05:43:01.367Z,32.45
2022-11-16T05:45:31.986Z,28.77
2022-11-16T05:48:00.456Z,37.05
2022-11-16T05:50:27.622Z,28.38
2022-11-16T05:53:06.577Z,27.60
2022-11-16T05:55:36.044Z,25.63
2022-11-16T05:58:03.052Z,27.75
2022-11-16T06:00:30.131Z,24.30
2022-11-16T06:02:58.942Z,26.00
2022-11-16T06:05:29.665Z,23.88
2022-11-16T06:07:58.213Z,24.52
2022-11-16T06:10:25.314Z,25.52
2022-11-16T06:12:53.494Z,22.90
2022-11-16T06:15:20.349Z,21.90
2022-11-16T06:17:47.808Z,26.00
2022-11-16T06:20:16.031Z,23.50
2022-11-16T06:22:44.158Z,26.25
2022-11-16T06:25:11.811Z,27.33
2022-11-16T06:27:42.359Z,28.05
2022-11-16T06:30:11.401Z,25.83
2022-11-16T06:32:40.193Z,23.60
2022-11-16T06:35:08.369Z,26.65
2022-11-16T06:37:36.717Z,27.92
2022-11-16T06:40:03.999Z,28.20
2022-11-16T06:42:35.116Z,26.45
2022-11-16T06:45:02.457Z,34.83
2022-11-16T06:47:36.132Z,33.15
2022-11-16T06:50:05.065Z,31.05
2022-11-16T06:52:33.708Z,35.08
2022-11-16T06:55:00.573Z,28.35
2022-11-16T06:57:31.416Z,29.42
2022-11-16T06:59:58.463Z,28.77
2022-11-16T07:02:25.431Z,21.02
2022-11-16T07:04:53.800Z,24.10
2022-11-16T07:07:20.849Z,27.30
2022-11-16T07:09:48.066Z,31.35
2022-11-16T07:12:15.754Z,33.05
2022-11-16T07:14:45.483Z,33.10
2022-11-16T07:17:13.464Z,28.95
2022-11-16T07:19:40.436Z,29.45
2022-11-16T07:22:07.972Z,28.77
2022-11-16T07:24:34.984Z,19.75
2022-11-16T07:27:02.696Z,23.55
2022-11-16T07:29:35.717Z,21.55
2022-11-16T07:32:22.879Z,25.48
2022-11-16T07:35:12.530Z,19.50
2022-11-16T07:37:40.147Z,20.92
2022-11-16T07:40:09.005Z,36.33
2022-11-16T07:42:37.454Z,35.92
2022-11-16T07:45:27.426Z,35.70
2022-11-16T07:47:58.576Z,32.05
2022-11-16T07:50:44.256Z,34.20
2022-11-16T07:53:11.443Z,29.65
2022-11-16T07:55:39.419Z,36.08
2022-11-16T07:58:06.509Z,36.17
2022-11-16T08:00:33.599Z,32.25
2022-11-16T08:03:09.321Z,38.87
2022-11-16T08:05:36.910Z,32.33
2022-11-16T08:08:04.234Z,37.33
2022-11-16T08:10:34.435Z,34.55
2022-11-16T08:13:01.390Z,41.42
2022-11-16T08:15:28.721Z,34.83
2022-11-16T08:17:59.511Z,40.17
2022-11-16T08:20:28.843Z,42.65
2022-11-16T08:22:59.705Z,35.25
2022-11-16T08:25:27.160Z,34.25
2022-11-16T08:27:54.180Z,30.52
2022-11-16T08:30:21.261Z,35.30
2022-11-16T08:32:48.592Z,37.63
2022-11-16T08:35:16.716Z,31.92
2022-11-16T08:37:45.262Z,33.45
2022-11-16T08:40:12.470Z,32.78
2022-11-16T08:42:43.661Z,26.77
2022-11-16T08:45:11.479Z,32.25
2022-11-16T08:47:38.382Z,26.92
2022-11-16T08:50:07.467Z,28.67
2022-11-16T08:52:34.466Z,27.45
2022-11-16T08:55:02.704Z,27.02
2022-11-16T08:57:30.222Z,28.08
2022-11-16T08:59:59.881Z,29.90
2022-11-16T09:02:26.818Z,31.00
2022-11-16T09:04:53.760Z,33.78
2022-11-16T09:07:21.661Z,30.27
2022-11-16T09:09:48.909Z,30.40
2022-11-16T09:12:16.090Z,23.52
2022-11-16T09:14:42.999Z,20.20
2022-11-16T09:17:09.949Z,18.80
2022-11-16T09:19:36.831Z,17.35
2022-11-16T09:22:04.204Z,19.40
2022-11-16T09:24:31.546Z,20.75
2022-11-16T09:27:01.647Z,21.98
2022-11-16T09:29:28.813Z,23.13
2022-11-16T09:31:56.304Z,22.60
2022-11-16T09:34:23.154Z,23.33
2022-11-16T09:36:50.075Z,25.27
2022-11-16T09:42:07.374Z,24.55
2022-11-16T10:18:08.549Z,13.30
2022-11-16T10:21:00.227Z,11.07
2022-11-16T10:23:44.016Z,12.18
2022-11-16T10:26:17.034Z,15.77
2022-11-16T10:28:57.707Z,15.48
2022-11-16T10:31:33.429Z,13.13
2022-11-16T10:34:03.385Z,11.73
2022-11-16T10:36:32.643Z,12.23
2022-11-16T10:39:01.149Z,18.10
2022-11-16T10:41:50.711Z,21.85
2022-11-16T10:44:25.890Z,25.58
2022-11-16T10:47:01.772Z,22.33
2022-11-16T10:49:43.950Z,26.00
2022-11-16T10:52:10.839Z,25.58
2022-11-16T10:54:42.852Z,22.73
2022-11-16T10:57:14.246Z,25.02
2022-11-16T10:59:44.059Z,24.58
2022-11-16T11:02:31.361Z,21.38
2022-11-16T11:05:14.463Z,18.80
2022-11-16T11:07:45.940Z,25.90
2022-11-16T11:10:29.884Z,22.35
2022-11-16T11:13:08.124Z,23.38
2022-11-16T11:15:35.153Z,23.02
2022-11-16T11:18:26.837Z,23.08
2022-11-16T11:21:16.925Z,20.83
2022-11-16T11:23:47.775Z,24.75
2022-11-16T11:26:37.370Z,26.85
2022-11-16T11:29:20.150Z,9.80
2022-11-16T11:31:54.096Z,14.68
2022-11-16T11:34:24.895Z,27.30
2022-11-16T11:36:56.704Z,26.50
2022-11-16T11:42:26.534Z,26.15
2022-11-16T11:45:15.374Z,19.55
2022-11-16T11:47:58.595Z,13.88
2022-11-16T11:50:33.815Z,14.98
2022-11-16T11:53:42.471Z,11.90
2022-11-16T11:56:12.502Z,14.32
2022-11-16T11:58:41.118Z,10.90
2022-11-16T12:01:33.664Z,15.65
2022-11-16T12:04:25.312Z,9.38
2022-11-16T12:07:18.474Z,10.50
2022-11-16T12:10:10.901Z,15.27
2022-11-16T12:12:47.598Z,17.13
2022-11-16T12:15:44.961Z,18.58
2022-11-16T12:18:17.510Z,19.52
2022-11-16T12:21:11.799Z,20.83
2022-11-16T12:23:47.023Z,24.25
2022-11-16T12:26:53.881Z,12.02
2022-11-16T12:29:45.240Z,15.93
2022-11-16T12:32:25.592Z,12.68
2022-11-16T12:35:10.892Z,11.90
2022-11-16T12:37:49.547Z,9.35
2022-11-16T12:40:43.731Z,11.18
2022-11-16T12:43:19.666Z,10.68
2022-11-16T12:45:54.017Z,12.23
2022-11-16T12:48:36.180Z,15.02
2022-11-16T12:51:32.003Z,11.60
2022-11-16T12:54:13.877Z,10.10
2022-11-16T12:56:54.345Z,10.77
2022-11-16T12:59:34.525Z,13.63
2022-11-16T13:02:08.589Z,8.85
2022-11-16T13:04:51.811Z,11.45
2022-11-16T13:07:25.158Z,9.90
2022-11-16T13:10:03.381Z,12.88
2022-11-16T13:12:32.116Z,10.75
2022-11-16T13:15:02.329Z,9.38
2022-11-16T13:17:33.621Z,10.85
2022-11-16T13:20:33.551Z,12.45
2022-11-16T13:23:14.818Z,15.25
2022-11-16T13:26:10.500Z,14.00
2022-11-16T13:28:56.394Z,11.43
2022-11-16T13:31:56.421Z,10.75
2022-11-16T13:34:31.392Z,10.85
2022-11-16T13:36:58.533Z,13.20
2022-11-16T13:39:57.711Z,18.92
2022-11-16T13:42:25.611Z,10.85
2022-11-16T13:44:54.083Z,13.27
2022-11-16T13:47:32.844Z,12.48
2022-11-16T13:50:02.527Z,8.77
2022-11-16T13:53:40.848Z,10.80
2022-11-16T13:55:38.725Z,10.93
2022-11-16T13:58:07.618Z,10.82
2022-11-16T14:00:40.436Z,12.40
2022-11-16T14:03:15.938Z,11.93
2022-11-16T14:05:47.866Z,11.68
2022-11-16T14:08:20.618Z,11.38
2022-11-16T14:10:53.006Z,11.48
2022-11-16T14:13:40.546Z,13.52
2022-11-16T14:16:22.841Z,11.65
2022-11-16T14:18:52.048Z,9.23
2022-11-16T14:21:57.416Z,10.90
2022-11-16T14:24:56.583Z,11.77
2022-11-16T14:27:39.789Z,11.48
2022-11-16T14:30:25.167Z,11.63
2022-11-16T14:32:54.736Z,18.38
2022-11-16T14:35:27.642Z,18.55
2022-11-16T14:38:05.013Z,21.20
2022-11-16T14:40:41.938Z,15.15
2022-11-16T14:43:18.354Z,12.32
2022-11-16T14:45:52.337Z,14.63
2022-11-16T14:48:21.458Z,19.05
2022-11-16T14:51:11.154Z,18.02
2022-11-16T14:53:42.494Z,18.83
2022-11-16T14:56:14.970Z,18.45
2022-11-16T14:59:16.499Z,13.20
2022-11-16T15:01:43.455Z,17.80
2022-11-16T15:04:12.256Z,18.73
2022-11-16T15:07:01.704Z,37.80
2022-11-16T15:09:33.226Z,16.40
2022-11-16T15:12:27.029Z,16.70
2022-11-16T15:14:56.362Z,25.10
2022-11-16T15:17:31.763Z,17.23
2022-11-16T15:20:20.644Z,18.45
2022-11-16T15:22:51.893Z,22.23
2022-11-16T15:25:32.291Z,21.70
2022-11-16T15:28:04.555Z,22.75
2022-11-16T15:30:34.508Z,25.45
2022-11-16T15:33:04.488Z,23.35
2022-11-16T15:35:34.661Z,23.70
2022-11-16T15:38:32.995Z,24.17
2022-11-16T15:41:04.822Z,24.52
2022-11-16T15:43:44.774Z,26.73
2022-11-16T15:46:17.958Z,15.65
2022-11-16T15:48:46.044Z,19.00
2022-11-16T15:51:20.176Z,17.45
2022-11-16T15:53:49.308Z,20.00
2022-11-16T15:56:16.117Z,16.80
2022-11-16T15:58:43.727Z,23.48
2022-11-16T16:01:12.642Z,19.10
2022-11-16T16:03:50.381Z,27.83
2022-11-16T16:06:46.039Z,30.80
2022-11-16T16:09:27.866Z,31.23
2022-11-16T16:12:10.968Z,28.08
2022-11-16T16:14:38.316Z,31.55
2022-11-16T16:17:05.263Z,25.77
2022-11-16T16:19:45.351Z,39.90
2022-11-16T16:22:28.385Z,39.25
2022-11-16T16:24:55.665Z,33.03
2022-11-16T16:27:24.976Z,44.95
2022-11-16T16:29:53.892Z,41.30
2022-11-16T16:32:28.059Z,37.10
2022-11-16T16:34:57.175Z,46.13
2022-11-16T16:37:26.536Z,42.17
2022-11-16T16:39:53.446Z,49.67
2022-11-16T16:42:20.376Z,44.45
2022-11-16T16:44:48.071Z,49.55
2022-11-16T16:47:16.723Z,46.85
2022-11-16T16:49:43.766Z,50.00
2022-11-16T16:52:13.904Z,41.40
2022-11-16T16:54:41.217Z,45.08
2022-11-16T16:57:13.944Z,48.88
2022-11-16T16:59:40.857Z,40.90
2022-11-16T17:02:11.779Z,41.22
2022-11-16T17:04:38.759Z,46.05
2022-11-16T17:07:06.059Z,43.67
2022-11-16T17:09:32.963Z,42.75
2022-11-16T17:11:59.875Z,53.78
2022-11-16T17:14:26.816Z,46.70
2022-11-16T17:16:53.826Z,44.75
2022-11-16T17:19:23.220Z,44.38
2022-11-16T17:21:51.683Z,54.05
2022-11-16T17:24:18.655Z,51.58
2022-11-16T17:26:48.492Z,50.33
2022-11-16T17:29:15.403Z,53.70
2022-11-16T17:31:44.225Z,44.70
2022-11-16T17:34:13.829Z,53.10
2022-11-16T17:36:42.228Z,58.08
2022-11-16T17:39:09.534Z,52.58
2022-11-16T17:41:37.237Z,53.47
2022-11-16T17:44:04.807Z,49.70
2022-11-16T17:46:31.635Z,48.55
2022-11-16T17:48:58.706Z,51.78
2022-11-16T17:51:26.122Z,48.08
2022-11-16T17:53:53.074Z,57.30
2022-11-16T17:56:22.306Z,57.53
2022-11-16T17:58:52.670Z,54.85
2022-11-16T18:01:19.612Z,56.28
2022-11-16T18:03:46.629Z,53.75
2022-11-16T18:06:21.829Z,52.40
2022-11-16T18:08:49.303Z,53.63
2022-11-16T18:11:24.705Z,43.60
2022-11-16T18:14:00.683Z,40.38
2022-11-16T18:16:32.705Z,46.85
2022-11-16T18:19:02.197Z,41.83
2022-11-16T18:21:29.529Z,41.60
2022-11-16T18:23:59.195Z,34.33
2022-11-16T18:26:26.167Z,36.45
2022-11-16T18:28:53.968Z,38.22
2022-11-16T18:31:22.818Z,38.03
2022-11-16T18:33:49.948Z,36.97
2022-11-16T18:36:19.242Z,44.97
2022-11-16T18:38:46.893Z,44.25
2022-11-16T18:41:13.730Z,39.67
2022-11-16T18:43:58.999Z,42.92
2022-11-16T18:46:28.036Z,38.70
2022-11-16T18:48:56.141Z,38.03
2022-11-16T18:51:24.665Z,43.35
2022-11-16T18:53:51.927Z,37.53
2022-11-16T18:56:19.463Z,36.85
2022-11-16T18:58:51.431Z,38.17
2022-11-16T19:01:22.212Z,40.20
2022-11-16T19:03:50.347Z,33.42
2022-11-16T19:06:18.193Z,35.85
2022-11-16T19:08:50.390Z,36.60
2022-11-16T19:11:21.689Z,45.92
2022-11-16T19:13:56.160Z,38.72
2022-11-16T19:16:24.750Z,43.53
2022-11-16T19:18:52.118Z,45.53
2022-11-16T19:21:19.867Z,43.33
2022-11-16T19:23:49.083Z,40.00
2022-11-16T19:26:17.786Z,43.25
2022-11-16T19:28:49.101Z,36.28
2022-11-16T19:31:24.377Z,43.83
2022-11-16T19:34:02.444Z,41.92
2022-11-16T19:36:30.893Z,38.83
2022-11-16T19:38:58.331Z,39.53
2022-11-16T19:41:27.296Z,42.67
2022-11-16T19:43:59.161Z,42.65
2022-11-16T19:46:34.087Z,37.35
2022-11-16T19:49:01.357Z,51.40
2022-11-16T19:51:30.736Z,38.13
2022-11-16T19:54:00.119Z,41.78
2022-11-16T19:56:27.066Z,40.42
2022-11-16T19:58:53.989Z,45.38
2022-11-16T20:01:28.028Z,41.85
2022-11-16T20:03:59.269Z,42.22
2022-11-16T20:06:29.328Z,41.13
2022-11-16T20:09:00.995Z,42.78
2022-11-16T20:11:34.166Z,42.00
2022-11-16T20:14:03.195Z,41.10
2022-11-16T20:16:37.140Z,40.85
2022-11-16T20:19:07.428Z,41.55
2022-11-16T20:21:37.058Z,41.85
2022-11-16T20:24:07.063Z,42.20
2022-11-16T20:26:35.929Z,38.70
2022-11-16T20:29:03.498Z,35.60
2022-11-16T20:31:32.242Z,35.03
2022-11-16T20:34:03.575Z,34.47
2022-11-16T20:36:32.447Z,34.30
2022-11-16T20:39:00.929Z,42.78
2022-11-16T20:41:32.823Z,34.30
2022-11-16T20:44:01.339Z,40.58
2022-11-16T20:46:31.058Z,42.72
2022-11-16T20:49:00.511Z,43.50
2022-11-16T20:51:28.930Z,42.25
2022-11-16T20:53:55.888Z,42.20
2022-11-16T20:56:22.863Z,40.03
2022-11-16T20:58:50.171Z,45.80
2022-11-16T21:01:19.878Z,38.20
2022-11-16T21:03:47.170Z,34.85
2022-11-16T21:06:14.893Z,38.13
2022-11-16T21:08:42.080Z,38.70
2022-11-16T21:11:14.160Z,36.10
2022-11-16T21:13:59.839Z,32.72
2022-11-16T21:16:26.825Z,38.60
2022-11-16T21:18:54.662Z,33.05
2022-11-16T21:21:21.732Z,34.83
2022-11-16T21:23:51.952Z,37.30
2022-11-16T21:26:21.699Z,32.38
2022-11-16T21:28:48.762Z,32.83
2022-11-16T21:31:18.487Z,35.05
2022-11-16T21:33:46.108Z,32.90
2022-11-16T21:36:20.364Z,36.45
2022-11-16T21:38:47.957Z,33.47
2022-11-16T21:41:16.335Z,31.13
2022-11-16T21:43:44.355Z,33.58
2022-11-16T21:46:16.478Z,34.78
2022-11-16T21:48:43.964Z,32.17
2022-11-16T21:51:13.256Z,33.60
2022-11-16T21:53:40.923Z,28.98
2022-11-16T21:56:12.759Z,29.67
2022-11-16T21:58:40.565Z,32.30
2022-11-16T22:01:07.973Z,31.65
2022-11-16T22:03:35.163Z,30.27
2022-11-16T22:06:24.287Z,33.28
2022-11-16T22:08:51.323Z,32.13
2022-11-16T22:11:22.268Z,30.60
2022-11-16T22:13:50.470Z,31.10
2022-11-16T22:16:19.665Z,32.50
2022-11-16T22:18:46.709Z,35.03
2022-11-16T22:21:13.614Z,39.92
2022-11-16T22:23:40.887Z,32.50
2022-11-16T22:26:11.280Z,33.25
2022-11-16T22:28:38.328Z,32.95
2022-11-16T22:31:15.279Z,37.33
2022-11-16T22:33:42.466Z,30.35
2022-11-16T22:36:10.685Z,36.17
2022-11-16T22:38:38.040Z,35.67
2022-11-16T22:41:05.300Z,36.35
2022-11-16T22:43:33.016Z,34.42
2022-11-16T22:46:05.575Z,38.58
2022-11-16T22:48:38.012Z,42.88
2022-11-16T22:51:12.087Z,37.92
2022-11-16T22:53:39.229Z,40.00
2022-11-16T22:56:08.186Z,39.40
2022-11-16T22:58:36.905Z,43.42
2022-11-16T23:01:05.139Z,40.60
2022-11-16T23:03:32.159Z,40.05
2022-11-16T23:05:59.864Z,43.25
2022-11-16T23:08:27.722Z,44.20
2022-11-16T23:11:17.237Z,43.28
2022-11-16T23:14:03.214Z,44.35
2022-11-16T23:16:30.146Z,46.63
2022-11-16T23:18:57.254Z,46.95
2022-11-16T23:21:42.902Z,51.55
2022-11-16T23:24:32.782Z,48.58
2022-11-16T23:27:20.933Z,48.60
2022-11-16T23:29:48.091Z,46.95
2022-11-16T23:32:14.982Z,43.47
2022-11-16T23:34:41.815Z,46.55
2022-11-16T23:37:08.689Z,47.22
2022-11-16T23:39:35.595Z,48.53
2022-11-16T23:42:20.738Z,48.95
2022-11-16T23:44:47.693Z,47.65
2022-11-16T23:47:14.558Z,42.70
2022-11-16T23:49:41.755Z,44.50
2022-11-16T23:52:08.884Z,51.45
2022-11-16T23:54:35.864Z,47.75
2022-11-16T23:57:02.849Z,42.17
2022-11-16T23:59:29.695Z,44.75
